Time;durP1;ratioP1;P1;durP2;ratioP2;P2;SDS_P1;SDS_P2;PMS_P1;PMS_P2;Temp;Humidity;BMP_temperature;BMP_pressure;BME280_temperature;BME280_humidity;BME280_pressure;Samples;Min_cycle;Max_cycle;Signal;HPM_P1;HPM_P2
2024/04/09 00:01:49;;;;;;;15.00;7.72;;;;;;;14.56;100.00;70024.66;5554916;25;20795;-53
2024/04/09 00:04:19;;;;;;;16.17;7.03;;;;;;;14.54;100.00;70020.28;5522217;25;20032;-49
2024/04/09 00:06:50;;;;;;;16.20;7.03;;;;;;;14.53;100.00;70021.75;5554998;25;20016;-46
2024/04/09 00:09:20;;;;;;;15.93;7.20;;;;;;;14.43;100.00;70007.41;5558916;25;20332;-48
2024/04/09 00:11:53;;;;;;;16.70;7.53;;;;;;;14.41;100.00;70010.91;5558807;25;20105;-47
2024/04/09 00:14:21;;;;;;;13.85;6.45;;;;;;;14.37;100.00;70006.81;5557645;25;20005;-48
2024/04/09 00:16:53;;;;;;;13.27;6.05;;;;;;;14.36;100.00;70005.06;5558277;25;20008;-48
2024/04/09 00:19:24;;;;;;;12.82;5.97;;;;;;;14.29;100.00;69994.81;5554983;25;20332;-49
2024/04/09 00:21:55;;;;;;;13.18;6.15;;;;;;;14.29;100.00;69991.59;5558354;25;20072;-49
2024/04/09 00:24:23;;;;;;;14.15;6.43;;;;;;;14.29;100.00;69992.19;5554375;25;20011;-49
2024/04/09 00:26:53;;;;;;;13.55;7.03;;;;;;;14.27;100.00;69989.84;5557842;25;20448;-49
2024/04/09 00:29:21;;;;;;;11.68;6.43;;;;;;;14.30;100.00;69993.38;5558508;25;20016;-50
2024/04/09 00:31:52;;;;;;;15.70;7.05;;;;;;;14.31;100.00;69993.94;5521787;25;20001;-48
2024/04/09 00:34:19;;;;;;;13.60;6.63;;;;;;;14.30;100.00;69998.63;5558535;25;20339;-47
2024/04/09 00:36:53;;;;;;;15.50;7.05;;;;;;;14.27;100.00;69989.84;5558458;25;20013;-53
2024/04/09 00:39:23;;;;;;;13.32;7.50;;;;;;;14.21;100.00;69977.59;5555064;25;20005;-54
2024/04/09 00:41:54;;;;;;;16.02;7.10;;;;;;;14.23;100.00;69992.47;5550759;25;20416;-53
2024/04/09 00:44:25;;;;;;;14.63;7.43;;;;;;;14.17;100.00;69975.53;5558408;25;20332;-54
2024/04/09 00:46:56;;;;;;;15.15;7.90;;;;;;;14.14;100.00;69979.91;5557943;25;20023;-54
2024/04/09 00:49:24;;;;;;;14.20;8.55;;;;;;;14.14;100.00;69979.91;5558029;25;20447;-52
2024/04/09 00:51:57;;;;;;;16.23;8.00;;;;;;;14.17;100.00;69983.41;5557145;25;20011;-53
2024/04/09 00:54:25;;;;;;;15.85;8.25;;;;;;;14.14;100.00;69977.28;5551206;25;20032;-52
2024/04/09 00:56:56;;;;;;;13.15;8.05;;;;;;;14.13;100.00;69979.31;5555734;25;20348;-54
2024/04/09 00:59:24;;;;;;;14.15;8.40;;;;;;;14.12;100.00;69977.53;5521045;25;20004;-52
2024/04/09 01:01:55;;;;;;;14.57;8.82;;;;;;;14.11;100.00;69971.13;5555709;25;20005;-54
2024/04/09 01:04:22;;;;;;;13.07;7.93;;;;;;;14.12;100.00;69978.13;5558525;25;20428;-51
2024/04/09 01:06:56;;;;;;;14.65;8.50;;;;;;;14.12;100.00;69972.31;5558489;25;19997;-53
2024/04/09 01:09:24;;;;;;;13.60;8.55;;;;;;;14.09;100.00;69968.78;5556248;25;20487;-54
2024/04/09 01:11:55;;;;;;;15.55;8.68;;;;;;;14.08;100.00;69973.44;5561994;25;20547;-53
2024/04/09 01:14:22;;;;;;;13.55;8.00;;;;;;;14.06;100.00;69965.28;5559671;25;20000;-53
2024/04/09 01:16:53;;;;;;;14.38;8.07;;;;;;;14.03;100.00;69964.97;5557213;25;20027;-52
2024/04/09 01:19:21;;;;;;;16.00;7.35;;;;;;;14.01;100.00;69957.38;5557942;25;20366;-53
2024/04/09 01:21:53;;;;;;;14.23;7.18;;;;;;;13.99;100.00;69955.63;5555144;25;20332;-53
2024/04/09 01:24:24;;;;;;;;;;;;;;;13.98;100.00;69959.72;5556992;25;20009;-53
2024/04/09 01:26:55;;;;;;;11.32;5.80;;;;;;;13.93;100.00;69956.47;5521285;25;19931;-53
2024/04/09 01:29:22;;;;;;;10.80;4.88;;;;;;;13.89;100.00;69946.53;5558255;25;20021;-50
2024/04/09 01:31:54;;;;;;;11.77;5.38;;;;;;;13.83;100.00;69944.78;5556742;25;20001;-51
2024/04/09 01:34:21;;;;;;;11.73;5.80;;;;;;;13.81;100.00;69937.19;5555889;25;20053;-48
2024/04/09 01:36:55;;;;;;;13.50;6.63;;;;;;;13.74;100.00;69934.25;5557012;25;20456;-53
2024/04/09 01:39:27;;;;;;;14.60;6.82;;;;;;;13.69;100.00;69926.38;5558922;25;19997;-53
2024/04/09 01:41:58;;;;;;;12.18;5.68;;;;;;;13.75;100.00;69938.03;5556274;25;20049;-54
2024/04/09 01:44:26;;;;;;;10.55;5.65;;;;;;;13.77;100.00;69938.34;5557773;25;20028;-51
2024/04/09 01:46:58;;;;;;;13.00;5.38;;;;;;;13.74;100.00;69931.63;5560111;25;20076;-54
2024/04/09 01:49:26;;;;;;;10.02;4.57;;;;;;;13.67;100.00;69934.50;5557518;25;20033;-53
2024/04/09 01:51:56;;;;;;;11.25;4.38;;;;;;;13.66;100.00;69923.44;5558110;25;20432;-53
2024/04/09 01:54:27;;;;;;;12.13;4.35;;;;;;;13.65;100.00;69922.28;5557797;25;20388;-54
2024/04/09 01:56:57;;;;;;;8.57;3.97;;;;;;;13.67;100.00;69921.41;5555837;25;20004;-52
2024/04/09 01:59:26;;;;;;;10.48;4.07;;;;;;;13.68;100.00;69922.56;5553872;25;20026;-53
2024/04/09 02:01:56;;;;;;;13.10;4.35;;;;;;;13.66;100.00;69926.06;5557684;25;20491;-53
2024/04/09 02:04:27;;;;;;;8.68;3.58;;;;;;;13.68;100.00;69922.56;5560590;25;20071;-53
2024/04/09 02:06:58;;;;;;;7.20;3.50;;;;;;;13.66;100.00;69925.47;5560633;25;20076;-54
2024/04/09 02:09:28;;;;;;;8.07;4.07;;;;;;;13.69;100.00;69924.31;5560276;25;20350;-51
2024/04/09 02:11:58;;;;;;;7.10;3.75;;;;;;;13.67;100.00;69924.63;5560744;25;20400;-53
2024/04/09 02:14:27;;;;;;;9.40;4.18;;;;;;;13.67;100.00;69922.00;5558813;25;20819;-54
2024/04/09 02:16:58;;;;;;;8.82;3.97;;;;;;;13.65;100.00;69919.66;5556686;25;20472;-53
2024/04/09 02:19:26;;;;;;;9.82;3.67;;;;;;;13.62;100.00;69918.16;5556842;25;20452;-53
2024/04/09 02:21:59;;;;;;;8.90;3.50;;;;;;;13.60;100.00;69913.78;5552167;25;20527;-53
2024/04/09 02:24:29;;;;;;;9.82;3.65;;;;;;;13.54;100.00;69914.66;5555014;25;20468;-54
2024/04/09 02:27:00;;;;;;;8.10;3.67;;;;;;;13.52;100.00;69905.03;5556001;25;20004;-48
2024/04/09 02:29:27;;;;;;;8.57;3.42;;;;;;;13.47;100.00;69901.19;5557783;25;20092;-47
2024/04/09 02:31:58;;;;;;;8.25;4.10;;;;;;;13.43;100.00;69893.91;5559881;25;20004;-48
2024/04/09 02:34:26;;;;;;;9.18;3.50;;;;;;;13.43;100.00;69893.91;5560191;25;19996;-53
2024/04/09 02:36:56;;;;;;;8.75;3.55;;;;;;;13.41;100.00;69894.19;5558277;25;20015;-54
2024/04/09 02:39:28;;;;;;;8.15;3.50;;;;;;;13.42;100.00;69898.00;5553373;25;20576;-54
2024/04/09 02:41:59;;;;;;;8.32;3.58;;;;;;;13.38;100.00;69893.31;5556116;25;20000;-52
2024/04/09 02:44:29;;;;;;;7.68;3.28;;;;;;;13.39;100.00;69894.47;5554955;25;20012;-53
2024/04/09 02:47:01;;;;;;;7.63;3.08;;;;;;;13.40;100.00;69895.63;5559601;25;20012;-54
2024/04/09 02:49:29;;;;;;;8.25;2.92;;;;;;;13.39;100.00;69892.44;5559478;25;19997;-48
2024/04/09 02:52:00;;;;;;;7.80;2.88;;;;;;;13.38;100.00;69886.03;5554900;25;20455;-54
2024/04/09 02:54:30;;;;;;;6.18;2.40;;;;;;;13.35;100.00;69892.97;5555481;25;19993;-53
2024/04/09 02:57:01;;;;;;;10.07;2.63;;;;;;;13.38;100.00;69893.88;5555835;25;20019;-54
2024/04/09 02:59:28;;;;;;;6.40;2.47;;;;;;;13.40;100.00;69893.03;5521367;25;20072;-55
2024/04/09 03:01:59;;;;;;;8.73;2.53;;;;;;;13.36;100.00;69888.91;5559574;25;20444;-54
2024/04/09 03:04:26;;;;;;;8.27;2.78;;;;;;;13.39;100.00;69889.22;5559487;25;20073;-54
2024/04/09 03:06:57;;;;;;;7.82;2.75;;;;;;;13.34;100.00;69892.38;5559201;25;20539;-53
2024/04/09 03:09:25;;;;;;;7.78;2.70;;;;;;;13.38;100.00;69890.69;5560055;25;20557;-54
2024/04/09 03:11:58;;;;;;;6.43;2.85;;;;;;;13.33;100.00;69886.00;5555304;25;20405;-53
2024/04/09 03:14:29;;;;;;;8.48;2.30;;;;;;;13.34;100.00;69889.75;5556471;25;19997;-53
2024/04/09 03:16:59;;;;;;;5.57;2.47;;;;;;;13.35;100.00;69888.34;5556607;25;20013;-53
2024/04/09 03:19:27;;;;;;;7.55;2.47;;;;;;;13.34;100.00;69889.19;5557483;25;20001;-54
2024/04/09 03:21:57;;;;;;;8.98;2.38;;;;;;;13.38;100.00;69893.31;5553636;25;20012;-54
2024/04/09 03:24:25;;;;;;;9.77;2.30;;;;;;;13.33;100.00;69886.00;5554831;25;20019;-52
2024/04/09 03:26:58;;;;;;;9.18;2.30;;;;;;;13.35;100.00;69890.97;5559139;25;20000;-52
2024/04/09 03:29:26;;;;;;;7.47;2.05;;;;;;;13.39;100.00;69886.59;5555650;25;20353;-52
2024/04/09 03:31:56;;;;;;;8.43;2.30;;;;;;;13.37;100.00;69886.91;5553329;25;20012;-54
2024/04/09 03:34:24;;;;;;;7.85;2.20;;;;;;;13.35;100.00;69888.34;5552365;25;20041;-52
2024/04/09 03:36:57;;;;;;;5.53;2.08;;;;;;;13.35;100.00;69885.72;5554419;25;20016;-54
2024/04/09 03:39:27;;;;;;;9.68;2.80;;;;;;;13.37;100.00;69889.50;5554889;25;20332;-52
2024/04/09 03:42:00;;;;;;;5.38;2.50;;;;;;;13.35;100.00;69887.75;5559423;25;20352;-53
2024/04/09 03:44:31;;;;;;;7.68;2.40;;;;;;;13.35;100.00;69885.13;5554011;25;20037;-53
2024/04/09 03:47:04;;;;;;;7.60;2.67;;;;;;;13.34;100.00;69887.16;5555132;25;20001;-54
2024/04/09 03:49:33;;;;;;;7.97;3.38;;;;;;;13.34;100.00;69887.16;5556194;25;20001;-53
2024/04/09 03:52:03;;;;;;;8.93;4.53;;;;;;;13.36;100.00;69888.91;5558915;25;20471;-53
2024/04/09 03:54:32;;;;;;;9.43;5.10;;;;;;;13.38;100.00;69893.31;5559092;25;20012;-53
2024/04/09 03:57:05;;;;;;;10.25;5.30;;;;;;;13.37;100.00;69889.50;5555798;25;21077;-53
2024/04/09 03:59:33;;;;;;;13.32;5.97;;;;;;;13.34;100.00;69887.16;5551540;25;20012;-53
2024/04/09 04:02:04;;;;;;;12.82;7.15;;;;;;;13.31;100.00;69883.63;5554501;25;20007;-50
2024/04/09 04:04:32;;;;;;;9.95;6.85;;;;;;;13.28;100.00;69882.75;5559682;25;20017;-53
2024/04/09 04:07:02;;;;;;;12.23;7.60;;;;;;;13.30;100.00;69879.28;5555709;25;20327;-54
2024/04/09 04:09:31;;;;;;;12.43;8.23;;;;;;;13.27;100.00;69873.72;5554219;25;19997;-53
2024/04/09 04:12:02;;;;;;;11.60;7.90;;;;;;;13.22;100.00;69875.72;5553564;25;20001;-52
2024/04/09 04:14:35;;;;;;;11.77;7.85;;;;;;;13.18;100.00;69866.41;5555027;25;20037;-53
2024/04/09 04:17:06;;;;;;;13.45;9.18;;;;;;;13.18;100.00;69868.44;5550629;25;20004;-52
2024/04/09 04:19:34;;;;;;;16.05;9.38;;;;;;;13.15;100.00;69862.31;5554611;25;20013;-55
2024/04/09 04:22:04;;;;;;;15.32;9.90;;;;;;;13.18;100.00;69866.41;5552864;25;20336;-55
2024/04/09 04:24:32;;;;;;;14.55;9.27;;;;;;;13.21;100.00;69871.97;5553528;25;20007;-55
2024/04/09 04:27:02;;;;;;;16.15;9.85;;;;;;;13.15;100.00;69868.13;5556476;25;20032;-54
2024/04/09 04:29:30;;;;;;;13.25;9.32;;;;;;;13.16;100.00;69868.72;5554850;25;20001;-55
2024/04/09 04:32:03;;;;;;;15.18;9.93;;;;;;;13.14;100.00;69858.50;5553394;25;20016;-53
2024/04/09 04:34:31;;;;;;;17.73;8.75;;;;;;;13.12;100.00;69864.63;5553396;25;20101;-54
2024/04/09 04:37:01;;;;;;;13.32;9.23;;;;;;;13.13;100.00;69865.78;5557054;25;20002;-52
2024/04/09 04:39:29;;;;;;;14.10;9.10;;;;;;;13.14;100.00;69864.34;5557687;25;20507;-52
2024/04/09 04:42:00;;;;;;;14.48;10.02;;;;;;;13.13;100.00;69857.94;5553811;25;20020;-51
2024/04/09 04:44:27;;;;;;;15.40;10.25;;;;;;;13.16;100.00;69864.06;5559323;25;20032;-52
2024/04/09 04:46:58;;;;;;;17.83;10.70;;;;;;;13.20;100.00;69868.16;5558718;25;20019;-53
2024/04/09 04:49:28;;;;;;;16.13;10.30;;;;;;;13.22;100.00;69870.50;5558673;25;20012;-51
2024/04/09 04:51:59;;;;;;;16.67;10.93;;;;;;;13.20;100.00;69868.16;5560433;25;20000;-51
2024/04/09 04:54:27;;;;;;;15.85;11.57;;;;;;;13.18;100.00;69871.06;5561533;25;20329;-52
2024/04/09 04:56:57;;;;;;;15.65;10.27;;;;;;;13.13;100.00;69865.19;5558430;25;19997;-51
2024/04/09 04:59:25;;;;;;;16.38;9.23;;;;;;;13.14;100.00;69869.59;5558116;25;19996;-53
2024/04/09 05:01:56;;;;;;;12.93;9.50;;;;;;;13.15;100.00;69859.69;5526840;25;20005;-51
2024/04/09 05:04:24;;;;;;;12.32;8.82;;;;;;;13.12;100.00;69856.75;5554005;25;20004;-52
2024/04/09 05:06:57;;;;;;;13.88;9.55;;;;;;;13.12;100.00;69858.81;5556537;25;20091;-52
2024/04/09 05:09:25;;;;;;;13.40;10.02;;;;;;;13.12;100.00;69859.38;5553061;25;20317;-52
2024/04/09 05:11:56;;;;;;;13.90;8.90;;;;;;;13.10;100.00;69853.84;5557520;25;20440;-52
2024/04/09 05:14:24;;;;;;;11.65;8.77;;;;;;;13.08;100.00;69857.31;5524628;25;20011;-53
2024/04/09 05:16:54;;;;;;;14.55;9.68;;;;;;;13.08;100.00;69862.56;5560917;25;20080;-52
2024/04/09 05:19:22;;;;;;;13.10;9.75;;;;;;;13.10;100.00;69854.44;5561165;25;20726;-55
2024/04/09 05:21:53;;;;;;;15.05;9.65;;;;;;;13.09;100.00;69860.53;5561236;25;20015;-52
2024/04/09 05:24:23;;;;;;;16.00;10.45;;;;;;;13.07;100.00;69853.53;5561390;25;20464;-52
2024/04/09 05:26:54;;;;;;;15.52;11.93;;;;;;;13.09;100.00;69850.03;5561107;25;20015;-52
2024/04/09 05:29:24;;;;;;;16.25;11.95;;;;;;;13.06;100.00;69857.03;5558021;25;20016;-52
2024/04/09 05:31:54;;;;;;;16.38;12.30;;;;;;;13.06;100.00;69855.00;5557153;25;20464;-53
2024/04/09 05:34:22;;;;;;;19.45;13.25;;;;;;;13.01;100.00;69849.72;5561285;25;20100;-52
2024/04/09 05:36:53;;;;;;;16.02;13.00;;;;;;;13.03;100.00;69848.84;5527783;25;19997;-52
2024/04/09 05:39:24;;;;;;;18.58;12.25;;;;;;;13.01;100.00;69854.97;5528138;25;20004;-53
2024/04/09 05:41:54;;;;;;;15.77;10.93;;;;;;;13.00;100.00;69845.94;5527181;25;20023;-52
2024/04/09 05:44:22;;;;;;;14.63;10.30;;;;;;;12.95;100.00;69840.09;5558130;25;20011;-53
2024/04/09 05:46:56;;;;;;;13.57;9.20;;;;;;;12.92;100.00;69838.63;5557040;25;20456;-53
2024/04/09 05:49:23;;;;;;;13.38;9.35;;;;;;;12.93;100.00;69837.19;5561145;25;20011;-53
2024/04/09 05:51:54;;;;;;;13.80;8.55;;;;;;;12.92;100.00;69841.81;5560830;25;20036;-53
2024/04/09 05:54:25;;;;;;;11.40;8.00;;;;;;;12.92;100.00;69833.97;5556237;25;20016;-54
2024/04/09 05:56:56;;;;;;;10.75;6.40;;;;;;;12.88;100.00;69834.53;5554803;25;20018;-52
2024/04/09 05:59:24;;;;;;;11.07;7.25;;;;;;;12.83;100.00;69826.06;5559458;25;20001;-52
2024/04/09 06:01:57;;;;;;;10.82;5.68;;;;;;;12.84;100.00;69829.84;5560826;25;20080;-54
2024/04/09 06:04:25;;;;;;;9.63;5.47;;;;;;;12.81;100.00;69828.97;5556351;25;20448;-54
2024/04/09 06:06:56;;;;;;;9.98;5.05;;;;;;;12.81;100.00;69828.97;5560428;25;19997;-53
2024/04/09 06:09:27;;;;;;;9.77;5.00;;;;;;;12.77;100.00;69821.66;5522375;25;20005;-56
2024/04/09 06:11:58;;;;;;;10.30;5.03;;;;;;;12.74;100.00;69816.13;5552435;25;20077;-53
2024/04/09 06:14:26;;;;;;;7.88;4.57;;;;;;;12.65;100.00;69805.59;5557390;25;20011;-53
2024/04/09 06:16:56;;;;;;;8.63;4.70;;;;;;;12.68;100.00;69816.97;5524023;25;20019;-52
2024/04/09 06:19:24;;;;;;;9.38;5.00;;;;;;;12.63;100.00;69809.09;5551810;25;20064;-53
2024/04/09 06:21:55;;;;;;;7.97;5.03;;;;;;;12.60;100.00;69800.34;5556423;25;20015;-52
2024/04/09 06:24:28;;;;;;;9.13;4.80;;;;;;;12.62;100.00;69802.66;5558390;25;20015;-50
2024/04/09 06:26:59;;;;;;;10.45;4.50;;;;;;;12.61;100.00;69801.53;5555361;25;20004;-51
2024/04/09 06:29:26;;;;;;;8.82;3.85;;;;;;;12.62;100.00;69800.06;5560609;25;20029;-53
2024/04/09 06:31:57;;;;;;;7.07;3.83;;;;;;;12.60;100.00;69805.56;5560836;25;20005;-53
2024/04/09 06:34:25;;;;;;;7.03;3.42;;;;;;;12.58;100.00;69800.63;5562012;25;19996;-53
2024/04/09 06:36:56;;;;;;;6.85;3.58;;;;;;;12.61;100.00;69803.53;5562155;25;20012;-53
2024/04/09 06:39:24;;;;;;;5.93;3.13;;;;;;;12.62;100.00;69802.66;5559875;25;20012;-52
2024/04/09 06:41:59;;;;;;;7.40;2.63;;;;;;;12.57;100.00;69802.06;5557971;25;20017;-52
2024/04/09 06:44:27;;;;;;;7.30;2.30;;;;;;;12.59;100.00;69801.22;5558323;25;20064;-53
2024/04/09 06:46:57;;;;;;;4.55;2.00;;;;;;;12.56;100.00;69798.28;5543255;25;20472;-50
2024/04/09 06:49:25;;;;;;;6.97;2.40;;;;;;;12.63;100.00;69811.13;5522279;25;20002;-51
2024/04/09 06:51:59;;;;;;;6.80;2.30;;;;;;;12.61;100.00;69801.53;5521542;25;19998;-52
2024/04/09 06:54:27;;;;;;;4.43;1.95;;;;;;;12.64;100.00;69809.69;5519094;25;20002;-49
2024/04/09 06:57:00;;;;;;;3.92;1.60;;;;;;;12.64;100.00;69807.06;5522178;26;19997;-47
2024/04/09 06:59:28;;;;;;;2.47;1.20;;;;;;;12.65;100.00;69810.84;5524828;25;20037;-50
2024/04/09 07:01:58;;;;;;;3.67;1.30;;;;;;;12.61;100.00;69800.91;5521750;26;20069;-53
2024/04/09 07:04:30;;;;;;;4.40;1.20;;;;;;;12.58;100.00;69800.63;5524433;25;20433;-52
2024/04/09 07:07:01;;;;;;;3.47;0.98;;;;;;;12.56;100.00;69795.66;5558947;25;20023;-53
2024/04/09 07:09:28;;;;;;;2.90;1.02;;;;;;;12.54;100.00;69797.97;5561617;25;20012;-52
2024/04/09 07:12:02;;;;;;;5.20;1.10;;;;;;;12.50;100.00;69788.66;5559596;25;20001;-53
2024/04/09 07:14:30;;;;;;;6.80;1.33;;;;;;;12.46;100.00;69792.41;5557759;25;20036;-52
2024/04/09 07:17:01;;;;;;;5.43;1.33;;;;;;;12.41;100.00;69781.34;5555859;25;20015;-52
2024/04/09 07:19:34;;;;;;;4.68;1.17;;;;;;;12.38;100.00;69774.63;5523562;26;20445;-52
2024/04/09 07:22:05;;;;;;;5.40;0.90;;;;;;;12.32;100.00;69770.81;5547179;25;20005;-53
2024/04/09 07:24:33;;;;;;;7.03;0.95;;;;;;;12.28;100.00;69769.34;5556049;25;19997;-53
2024/04/09 07:27:07;;;;;;;4.13;1.20;;;;;;;12.31;100.00;69769.63;5554857;25;20460;-54
2024/04/09 07:29:35;;;;;;;6.22;1.35;;;;;;;12.30;100.00;69771.09;5557504;25;20016;-53
2024/04/09 07:32:07;;;;;;;6.65;1.23;;;;;;;12.37;100.00;69778.69;5556223;25;20004;-54
2024/04/09 07:34:35;;;;;;;5.55;1.00;;;;;;;12.40;100.00;69780.16;5557271;25;20011;-53
2024/04/09 07:37:06;;;;;;;5.15;1.10;;;;;;;12.37;100.00;69776.66;5555001;25;20454;-53
2024/04/09 07:39:34;;;;;;;4.75;1.10;;;;;;;12.36;100.00;69770.25;5558269;25;20459;-53
2024/04/09 07:42:07;;;;;;;6.03;1.00;;;;;;;12.29;100.00;69767.88;5560049;25;20001;-54
2024/04/09 07:44:35;;;;;;;6.03;1.45;;;;;;;12.21;100.00;69758.53;5557162;25;19996;-52
2024/04/09 07:47:10;;;;;;;5.35;1.00;;;;;;;12.16;100.00;69750.06;5555574;25;19996;-53
2024/04/09 07:49:38;;;;;;;7.88;1.67;;;;;;;12.23;100.00;69762.91;5557937;25;20459;-53
2024/04/09 07:52:09;;;;;;;6.38;1.38;;;;;;;12.26;100.00;69767.00;5560105;25;20011;-51
2024/04/09 07:54:39;;;;;;;5.88;1.13;;;;;;;12.30;100.00;69763.81;5523495;26;20437;-54
2024/04/09 07:57:14;;;;;;;8.85;1.10;;;;;;;12.40;100.00;69779.59;5555552;25;20447;-54
2024/04/09 07:59:43;;;;;;;6.25;1.10;;;;;;;12.46;100.00;69789.19;5556330;25;19996;-53
2024/04/09 08:02:14;;;;;;;6.95;1.20;;;;;;;12.56;100.00;69800.31;5557186;25;20083;-53
2024/04/09 08:04:41;;;;;;;3.58;0.90;;;;;;;12.61;100.00;69809.38;5558225;25;20026;-53
2024/04/09 08:07:15;;;;;;;9.32;1.00;;;;;;;12.62;100.00;69807.34;5521654;25;20005;-53
2024/04/09 08:09:45;;;;;;;5.43;1.15;;;;;;;12.59;100.00;69804.41;5558131;25;20321;-53
2024/04/09 08:12:21;;;;;;;7.57;1.30;;;;;;;12.63;100.00;69803.84;5559306;25;20029;-54
2024/04/09 08:14:49;;;;;;;7.68;1.20;;;;;;;12.70;100.00;69813.50;5556773;25;19996;-55
2024/04/09 08:17:19;;;;;;;4.07;1.05;;;;;;;12.66;100.00;69809.97;5555160;25;20076;-53
2024/04/09 08:19:47;;;;;;;4.50;1.00;;;;;;;12.75;100.00;69822.53;5559595;25;20024;-53
2024/04/09 08:22:17;;;;;;;4.70;1.05;;;;;;;12.76;100.00;69817.88;5557693;25;20019;-54
2024/04/09 08:24:45;;;;;;;4.53;1.20;;;;;;;12.76;100.00;69823.72;5526914;25;20445;-53
2024/04/09 08:27:16;;;;;;;6.57;1.20;;;;;;;12.77;100.00;69819.03;5563571;25;20016;-54
2024/04/09 08:29:47;;;;;;;4.68;1.23;;;;;;;12.72;100.00;69813.78;5561791;25;20348;-54
2024/04/09 08:32:17;;;;;;;3.55;0.90;;;;;;;12.70;100.00;69813.50;5558998;25;20077;-53
2024/04/09 08:34:45;;;;;;;6.70;1.30;;;;;;;12.62;100.00;69805.28;5562959;25;20004;-54
2024/04/09 08:37:15;;;;;;;9.60;1.40;;;;;;;12.60;100.00;69800.34;5563310;25;19996;-54
2024/04/09 08:39:43;;;;;;;5.07;1.20;;;;;;;12.74;100.00;69823.41;5563756;25;20792;-54
2024/04/09 08:42:16;;;;;;;7.18;1.40;;;;;;;12.72;100.00;69819.03;5535396;25;20012;-52
2024/04/09 08:44:45;;;;;;;;;;;;;;;12.74;100.00;69823.97;5563097;25;20012;-53
2024/04/09 08:47:20;;;;;;;9.27;1.10;;;;;;;12.75;100.00;69814.06;5563254;25;19930;-54
2024/04/09 08:49:49;;;;;;;4.90;1.15;;;;;;;12.75;100.00;69816.69;5563906;25;19997;-53
2024/04/09 08:52:21;;;;;;;5.20;1.10;;;;;;;12.85;100.00;69836.84;5563387;25;20414;-54
2024/04/09 08:54:49;;;;;;;4.00;1.27;;;;;;;12.91;100.00;69835.44;5563576;25;20436;-53
2024/04/09 08:57:21;;;;;;;5.22;1.42;;;;;;;12.91;100.00;69834.81;5562572;25;20015;-54
2024/04/09 08:59:49;;;;;;;6.28;1.70;;;;;;;12.93;100.00;69837.19;5563341;25;20001;-52
2024/04/09 09:02:22;;;;;;;5.85;1.30;;;;;;;13.00;100.00;69847.97;5530072;25;20074;-53
2024/04/09 09:04:51;;;;;;;5.45;1.30;;;;;;;12.92;100.00;69841.81;5527009;25;19993;-53
2024/04/09 09:07:24;;;;;;;5.68;1.25;;;;;;;12.95;100.00;69842.13;5532051;25;20391;-54
2024/04/09 09:10:00;;;;;;;6.82;1.00;;;;;;;12.97;100.00;69842.44;5557941;25;20337;-54
2024/04/09 09:12:30;;;;;;;4.63;1.55;;;;;;;13.11;100.00;69858.22;5557804;25;20504;-54
2024/04/09 09:15:00;;;;;;;5.47;1.05;;;;;;;13.25;100.00;69876.63;5562195;25;20009;-53
2024/04/09 09:17:37;;;;;;;4.10;1.63;;;;;;;13.18;100.00;69866.41;5522968;26;20005;-53
2024/04/09 09:20:09;;;;;;;6.63;1.25;;;;;;;13.33;100.00;69882.78;5519974;25;20009;-53
2024/04/09 09:22:45;;;;;;;5.22;1.20;;;;;;;13.47;100.00;69895.97;5558984;25;20089;-53
2024/04/09 09:25:15;;;;;;;3.20;0.93;;;;;;;13.51;100.00;69903.84;5557446;25;20420;-53
2024/04/09 09:27:46;;;;;;;4.90;0.90;;;;;;;13.75;100.00;69936.00;5559720;25;20012;-53
2024/04/09 09:30:14;;;;;;;3.38;0.93;;;;;;;13.86;100.00;69945.66;5555374;25;19992;-54
2024/04/09 09:32:52;;;;;;;7.93;1.65;;;;;;;14.06;100.00;69965.28;5523361;25;20012;-53
2024/04/09 09:35:20;;;;;;;5.63;1.20;;;;;;;13.95;100.00;69953.00;5556321;25;20077;-54
2024/04/09 09:37:51;;;;;;;4.30;0.80;;;;;;;13.96;100.00;69954.75;5553557;25;20000;-53
2024/04/09 09:40:20;;;;;;;6.18;1.27;;;;;;;14.00;100.00;69961.47;5558376;25;20012;-50
2024/04/09 09:42:50;;;;;;;6.63;1.38;;;;;;;14.01;100.00;69960.00;5562035;25;20471;-52
2024/04/09 09:45:19;;;;;;;4.40;1.23;;;;;;;14.28;100.00;69991.03;5562307;25;20009;-54
2024/04/09 09:47:53;;;;;;;5.72;1.00;;;;;;;14.49;100.00;70014.44;5561351;25;19997;-53
2024/04/09 09:50:23;;;;;;;4.38;1.00;;;;;;;14.58;100.00;70024.41;5562479;25;20013;-53
2024/04/09 09:52:55;;;;;;;2.75;0.80;;;;;;;14.65;100.00;70035.81;5562611;25;20008;-55
2024/04/09 09:55:23;;;;;;;8.15;1.55;;;;;;;14.56;100.00;70027.91;5559471;25;20000;-52
2024/04/09 09:57:58;;;;;;;5.72;1.00;;;;;;;14.25;100.00;69990.16;5558342;25;20075;-53
2024/04/09 10:00:27;;;;;;;5.05;0.90;;;;;;;14.20;100.00;69984.28;5559061;25;19997;-54
2024/04/09 10:03:01;;;;;;;5.18;1.17;;;;;;;14.07;100.00;69971.69;5559188;25;20408;-54
2024/04/09 10:05:31;;;;;;;9.02;1.35;;;;;;;14.32;100.00;69995.13;5559962;25;20000;-54
2024/04/09 10:08:01;;;;;;;5.47;1.08;;;;;;;14.34;100.00;69998.06;5557565;25;20054;-53
2024/04/09 10:10:31;;;;;;;5.90;1.10;;;;;;;14.12;100.00;69974.94;5561683;25;20015;-54
2024/04/09 10:13:10;;;;;;;6.47;1.30;;;;;;;14.37;100.00;70000.97;5561472;25;20001;-55
2024/04/09 10:15:44;;;;;;;6.35;1.52;;;;;;;14.43;100.00;70007.41;5529140;25;20011;-54
2024/04/09 10:18:30;;;;;;;6.13;1.25;;;;;;;14.35;100.00;70001.25;5562044;25;19996;-54
2024/04/09 10:20:58;;;;;;;6.68;1.45;;;;;;;14.22;100.00;69983.41;5562170;25;20033;-54
2024/04/09 10:23:28;;;;;;;5.18;1.10;;;;;;;14.33;100.00;69996.31;5562392;25;20432;-54
2024/04/09 10:25:57;;;;;;;8.50;1.00;;;;;;;14.19;100.00;69980.50;5557391;25;20512;-54
2024/04/09 10:28:32;;;;;;;4.78;1.38;;;;;;;14.10;100.00;69970.53;5559015;25;20029;-54
2024/04/09 10:31:03;;;;;;;6.10;1.15;;;;;;;14.21;100.00;69982.84;5556915;25;19997;-53
2024/04/09 10:33:38;;;;;;;5.88;1.20;;;;;;;14.26;100.00;69988.69;5561232;25;20072;-53
2024/04/09 10:36:08;;;;;;;6.80;1.20;;;;;;;14.32;100.00;69995.13;5557932;25;20001;-54
2024/04/09 10:38:41;;;;;;;9.18;1.30;;;;;;;14.58;100.00;70029.66;5558311;25;20016;-54
2024/04/09 10:41:11;;;;;;;6.93;1.15;;;;;;;14.58;97.71;70030.22;5561111;25;20029;-54
2024/04/09 10:43:46;;;;;;;3.50;0.85;;;;;;;14.36;98.16;69999.81;5561740;25;20456;-53
2024/04/09 10:46:14;;;;;;;5.68;1.25;;;;;;;14.43;98.25;70004.78;5561155;25;20072;-54
2024/04/09 10:48:48;;;;;;;6.35;1.35;;;;;;;14.44;97.75;70011.19;5561158;25;20016;-53
2024/04/09 10:51:18;;;;;;;5.45;1.40;;;;;;;14.23;98.51;69984.59;5561584;25;20001;-53
2024/04/09 10:53:52;;;;;;;5.47;1.10;;;;;;;14.27;100.00;69991.91;5561416;25;20096;-53
2024/04/09 10:56:21;;;;;;;6.68;1.20;;;;;;;14.48;99.99;70013.84;5557305;25;19999;-54
2024/04/09 10:58:51;;;;;;;3.95;1.10;;;;;;;14.45;99.19;70009.75;5557783;25;20000;-51
2024/04/09 11:01:19;;;;;;;4.72;1.00;;;;;;;14.71;100.00;70039.63;5561595;25;20000;-52
2024/04/09 11:03:54;;;;;;;4.40;0.90;;;;;;;14.66;100.00;70033.78;5486624;26;20070;-54
2024/04/09 11:06:22;;;;;;;8.50;1.30;;;;;;;14.56;98.25;70025.28;5487269;26;19994;-55
2024/04/09 11:08:53;;;;;;;6.70;1.30;;;;;;;14.66;97.19;70034.34;5486163;26;20662;-54
2024/04/09 11:11:21;;;;;;;4.55;1.00;;;;;;;14.43;95.53;70010.63;5482741;26;19998;-55
2024/04/09 11:13:52;;;;;;;8.52;1.10;;;;;;;14.31;91.97;69994.53;5481797;26;20401;-55
2024/04/09 11:16:20;;;;;;;5.72;1.10;;;;;;;14.29;95.34;69992.19;5487039;26;20084;-52
2024/04/09 11:19:03;;;;;;;4.53;0.82;;;;;;;14.24;92.12;69988.38;5487358;26;20395;-55
2024/04/09 11:21:33;;;;;;;6.30;1.00;;;;;;;14.50;95.12;70018.22;5487219;26;19998;-54
2024/04/09 11:24:06;;;;;;;6.85;1.02;;;;;;;14.45;95.97;70009.75;5486993;26;20493;-54
2024/04/09 11:26:35;;;;;;;4.22;0.98;;;;;;;14.52;98.88;70018.53;5487095;26;19998;-54
2024/04/09 11:29:05;;;;;;;7.00;1.27;;;;;;;14.64;96.80;70036.69;5487380;26;20443;-55
2024/04/09 11:31:33;;;;;;;7.90;0.90;;;;;;;14.73;96.47;70041.97;5482985;26;20323;-54
2024/04/09 11:34:08;;;;;;;3.85;0.90;;;;;;;14.50;92.15;70016.19;5481666;26;19998;-47
2024/04/09 11:36:37;;;;;;;4.97;1.08;;;;;;;14.34;95.88;70002.72;5481003;26;20062;-48